Time;durP1;ratioP1;P1;durP2;ratioP2;P2;SDS_P1;SDS_P2;PMS_P1;PMS_P2;Temp;Humidity;BMP_temperature;BMP_pressure;BME280_temperature;BME280_humidity;BME280_pressure;Samples;Min_cycle;Max_cycle;Signal;HPM_P1;HPM_P2
2021/11/26 00:01:38;;;;;;;1.60;1.30;;;5.40;98.20;;;;;;4898618;29;20497;-78
2021/11/26 00:04:07;;;;;;;1.60;1.40;;;5.40;98.20;;;;;;4898141;29;20473;-78
2021/11/26 00:06:34;;;;;;;1.60;1.37;;;5.40;98.20;;;;;;4898832;29;20763;-78
2021/11/26 00:09:01;;;;;;;1.60;1.40;;;5.40;98.20;;;;;;4898912;29;20480;-78
2021/11/26 00:11:29;;;;;;;1.63;1.40;;;5.40;98.20;;;;;;4898864;29;20948;-78
2021/11/26 00:14:01;;;;;;;1.70;1.40;;;5.40;98.20;;;;;;4897012;29;20866;-78
2021/11/26 00:16:33;;;;;;;1.60;1.30;;;5.40;98.20;;;;;;4898509;29;20474;-77
2021/11/26 00:19:04;;;;;;;1.60;1.40;;;5.30;98.20;;;;;;4892761;29;20465;-78
2021/11/26 00:21:31;;;;;;;1.60;1.40;;;5.30;98.20;;;;;;4891605;29;20601;-77
2021/11/26 00:23:58;;;;;;;1.60;1.40;;;5.40;98.20;;;;;;4897814;29;20598;-78
2021/11/26 00:26:25;;;;;;;1.63;1.30;;;5.40;98.20;;;;;;4879421;29;20641;-78
2021/11/26 00:28:53;;;;;;;1.63;1.40;;;5.40;98.20;;;;;;4879450;29;20478;-78
2021/11/26 00:31:20;;;;;;;1.60;1.40;;;5.40;98.20;;;;;;4893176;29;20560;-78
2021/11/26 00:33:47;;;;;;;1.60;1.30;;;5.40;98.20;;;;;;4898658;29;20552;-78
2021/11/26 00:36:14;;;;;;;1.67;1.40;;;5.40;98.20;;;;;;4896727;29;20564;-79
2021/11/26 00:38:41;;;;;;;1.63;1.40;;;5.40;98.20;;;;;;4898778;29;20496;-78
2021/11/26 00:41:08;;;;;;;1.60;1.30;;;5.40;98.20;;;;;;4897899;29;20502;-78
2021/11/26 00:43:35;;;;;;;2.00;1.80;;;5.40;98.20;;;;;;4897105;29;20882;-78
2021/11/26 00:46:03;;;;;;;1.60;1.40;;;5.40;98.20;;;;;;4896851;29;20473;-76
2021/11/26 00:48:30;;;;;;;1.60;1.40;;;5.40;98.20;;;;;;4894227;29;21093;-78
2021/11/26 00:50:57;;;;;;;1.60;1.40;;;5.30;98.20;;;;;;4898061;29;20477;-78
2021/11/26 00:53:24;;;;;;;1.60;1.30;;;5.30;98.20;;;;;;4897849;29;20851;-78
2021/11/26 00:55:50;;;;;;;1.60;1.30;;;5.30;98.20;;;;;;4890792;29;20477;-78
2021/11/26 00:58:17;;;;;;;1.60;1.30;;;5.30;98.20;;;;;;4893795;29;20489;-78
2021/11/26 01:00:44;;;;;;;1.60;1.30;;;5.30;98.20;;;;;;4893741;29;20585;-77
2021/11/26 01:03:12;;;;;;;1.60;1.30;;;5.30;98.20;;;;;;4898194;29;20477;-78
2021/11/26 01:05:39;;;;;;;1.60;1.30;;;5.40;98.20;;;;;;4897672;29;20496;-78
2021/11/26 01:08:06;;;;;;;1.60;1.30;;;5.30;98.20;;;;;;4897890;29;20500;-78
2021/11/26 01:10:36;;;;;;;1.60;1.30;;;5.30;98.20;;;;;;4898337;29;20843;-78
2021/11/26 01:13:03;;;;;;;1.60;1.40;;;5.30;98.20;;;;;;4896958;29;20469;-78
2021/11/26 01:15:32;;;;;;;1.63;1.30;;;5.30;98.20;;;;;;4897280;29;20512;-77
2021/11/26 01:17:59;;;;;;;1.60;1.40;;;5.30;98.20;;;;;;4894937;29;20489;-77
2021/11/26 01:20:30;;;;;;;1.60;1.30;;;5.30;98.20;;;;;;4896316;29;20500;-78
2021/11/26 01:22:58;;;;;;;1.60;1.30;;;5.30;98.20;;;;;;4897042;29;20469;-77
2021/11/26 01:25:25;;;;;;;1.70;1.47;;;5.30;98.20;;;;;;4884083;29;20949;-78
2021/11/26 01:27:52;;;;;;;1.63;1.30;;;5.30;98.20;;;;;;4885826;29;20510;-78
2021/11/26 01:30:25;;;;;;;1.60;1.30;;;5.30;98.20;;;;;;4884021;29;20462;-78
2021/11/26 01:32:53;;;;;;;1.63;1.40;;;5.20;98.20;;;;;;4896999;29;20477;-75
2021/11/26 01:35:20;;;;;;;1.63;1.40;;;5.20;98.20;;;;;;4896305;29;20504;-78
2021/11/26 01:37:48;;;;;;;1.60;1.40;;;5.20;98.20;;;;;;4893637;29;20554;-78
2021/11/26 01:40:16;;;;;;;1.63;1.37;;;5.20;98.20;;;;;;4885696;29;20486;-78
2021/11/26 01:42:44;;;;;;;1.60;1.40;;;5.20;98.20;;;;;;4896011;29;20846;-77
2021/11/26 01:45:11;;;;;;;2.00;1.80;;;5.20;98.20;;;;;;4896260;29;20493;-78
2021/11/26 01:47:38;;;;;;;1.70;1.50;;;5.10;98.20;;;;;;4896317;29;20500;-77
2021/11/26 01:50:07;;;;;;;1.60;1.30;;;5.10;98.20;;;;;;4896860;29;20469;-78
2021/11/26 01:52:35;;;;;;;1.60;1.30;;;5.10;98.20;;;;;;4896544;29;20480;-78
2021/11/26 01:55:04;;;;;;;1.67;1.40;;;5.00;98.20;;;;;;4890681;29;20475;-77
2021/11/26 01:57:31;;;;;;;1.60;1.30;;;4.90;98.20;;;;;;4893194;29;20521;-77
2021/11/26 01:59:58;;;;;;;1.80;1.70;;;4.90;98.20;;;;;;4891219;29;20484;-77
2021/11/26 02:02:25;;;;;;;1.60;1.40;;;4.80;98.20;;;;;;4893815;29;20497;-77
2021/11/26 02:04:51;;;;;;;1.67;1.40;;;4.80;98.20;;;;;;4893686;29;20484;-78
2021/11/26 02:07:18;;;;;;;1.70;1.40;;;4.70;98.20;;;;;;4894766;29;20500;-78
2021/11/26 02:09:45;;;;;;;1.60;1.30;;;4.70;98.20;;;;;;4889197;29;20457;-78
2021/11/26 02:12:13;;;;;;;1.67;1.30;;;4.70;98.20;;;;;;4889458;29;20472;-77
2021/11/26 02:14:40;;;;;;;1.67;1.50;;;4.70;98.20;;;;;;4894194;29;20468;-78
2021/11/26 02:17:07;;;;;;;1.70;1.40;;;4.60;98.20;;;;;;4893846;29;20999;-77
2021/11/26 02:19:33;;;;;;;1.67;1.37;;;4.60;98.20;;;;;;4894919;29;20469;-77
2021/11/26 02:22:02;;;;;;;1.60;1.40;;;4.50;98.20;;;;;;4894853;29;20493;-77
2021/11/26 02:24:29;;;;;;;1.63;1.40;;;4.50;98.20;;;;;;4892176;29;20469;-77
2021/11/26 02:26:55;;;;;;;1.70;1.50;;;4.50;98.20;;;;;;4882479;29;20499;-77
2021/11/26 02:29:24;;;;;;;2.33;2.13;;;4.50;98.20;;;;;;4889066;29;20571;-77
2021/11/26 02:31:50;;;;;;;1.63;1.30;;;4.50;98.20;;;;;;4885378;29;20510;-78
2021/11/26 02:34:17;;;;;;;1.60;1.30;;;4.50;98.20;;;;;;4882106;29;20480;-76
2021/11/26 02:36:45;;;;;;;1.63;1.40;;;4.50;98.20;;;;;;4881463;29;20869;-78
2021/11/26 02:39:13;;;;;;;1.60;1.40;;;4.50;98.20;;;;;;4887752;29;20999;-78
2021/11/26 02:41:42;;;;;;;1.60;1.30;;;4.50;98.20;;;;;;4878572;29;20494;-76
2021/11/26 02:44:09;;;;;;;1.60;1.30;;;4.50;98.20;;;;;;4876653;29;20473;-75
2021/11/26 02:46:37;;;;;;;1.60;1.40;;;4.60;98.20;;;;;;4890926;29;21122;-77
2021/11/26 02:49:04;;;;;;;1.60;1.27;;;4.60;98.20;;;;;;4879160;29;20470;-77
2021/11/26 02:51:31;;;;;;;1.60;1.40;;;4.60;98.20;;;;;;4881255;29;20770;-77
2021/11/26 02:53:58;;;;;;;1.60;1.50;;;4.60;98.20;;;;;;4894495;29;20472;-77
2021/11/26 02:56:26;;;;;;;1.60;1.30;;;4.60;98.20;;;;;;4889371;29;20838;-77
2021/11/26 02:58:53;;;;;;;1.70;1.50;;;4.60;98.20;;;;;;4888284;29;20485;-77
2021/11/26 03:01:20;;;;;;;3.10;2.90;;;4.60;98.20;;;;;;4896489;29;20500;-77
2021/11/26 03:03:47;;;;;;;1.70;1.40;;;4.60;98.20;;;;;;4896691;29;20473;-77
2021/11/26 03:06:14;;;;;;;1.60;1.40;;;4.60;98.20;;;;;;4895863;29;20568;-77
2021/11/26 03:08:40;;;;;;;1.60;1.40;;;4.60;98.20;;;;;;4896770;29;20489;-77
2021/11/26 03:11:07;;;;;;;1.60;1.40;;;4.60;98.20;;;;;;4895294;29;20488;-78
2021/11/26 03:13:36;;;;;;;1.70;1.40;;;4.60;98.20;;;;;;4896878;29;20469;-77
2021/11/26 03:16:03;;;;;;;1.60;1.40;;;4.60;98.20;;;;;;4896115;29;20469;-77
2021/11/26 03:18:30;;;;;;;1.60;1.40;;;4.60;98.20;;;;;;4897751;29;20617;-77
2021/11/26 03:20:57;;;;;;;1.67;1.40;;;4.60;98.20;;;;;;4896637;29;20943;-77
2021/11/26 03:23:26;;;;;;;1.60;1.40;;;4.60;98.20;;;;;;4896175;29;20469;-77
2021/11/26 03:25:52;;;;;;;1.60;1.30;;;4.60;98.20;;;;;;4894538;29;20481;-77
2021/11/26 03:28:19;;;;;;;1.70;1.50;;;4.70;98.20;;;;;;4891012;29;20489;-77
2021/11/26 03:30:49;;;;;;;1.70;1.47;;;4.70;98.20;;;;;;4893938;29;20461;-77
2021/11/26 03:33:17;;;;;;;1.67;1.40;;;4.70;98.20;;;;;;4896146;29;20466;-77
2021/11/26 03:35:43;;;;;;;1.67;1.40;;;4.70;98.20;;;;;;4894244;29;20836;-77
2021/11/26 03:38:10;;;;;;;1.60;1.30;;;4.70;98.20;;;;;;4895906;29;20492;-75
2021/11/26 03:40:37;;;;;;;1.60;1.40;;;4.80;98.20;;;;;;4895172;29;20462;-75
2021/11/26 03:43:04;;;;;;;1.60;1.30;;;4.80;98.20;;;;;;4894922;29;20497;-76
2021/11/26 03:45:31;;;;;;;1.60;1.30;;;4.80;98.20;;;;;;4885735;29;20482;-76
2021/11/26 03:48:00;;;;;;;1.70;1.50;;;4.80;98.20;;;;;;4894847;29;21143;-75
2021/11/26 03:50:28;;;;;;;1.63;1.40;;;4.80;98.20;;;;;;4894379;29;20572;-76
2021/11/26 03:52:55;;;;;;;1.67;1.40;;;4.80;98.20;;;;;;4893931;29;20469;-74
2021/11/26 03:55:25;;;;;;;1.67;1.40;;;4.80;98.20;;;;;;4884432;29;20469;-75
2021/11/26 03:57:52;;;;;;;1.60;1.30;;;4.80;98.20;;;;;;4891023;29;20493;-75
2021/11/26 04:00:19;;;;;;;1.70;1.50;;;4.80;98.20;;;;;;4885004;29;20848;-75
2021/11/26 04:02:47;;;;;;;1.63;1.30;;;4.80;98.20;;;;;;4894846;29;20500;-76
2021/11/26 04:05:16;;;;;;;1.60;1.30;;;4.80;98.20;;;;;;4890967;29;20462;-76
2021/11/26 04:07:43;;;;;;;1.60;1.40;;;4.80;98.20;;;;;;4890222;29;20734;-74
2021/11/26 04:10:11;;;;;;;1.63;1.40;;;4.80;98.20;;;;;;4894913;29;20473;-75
2021/11/26 04:12:39;;;;;;;1.63;1.40;;;4.80;98.20;;;;;;4894263;29;20951;-75
2021/11/26 04:15:08;;;;;;;1.63;1.37;;;4.80;98.20;;;;;;4892946;29;20478;-76
2021/11/26 04:17:35;;;;;;;1.70;1.50;;;4.80;98.20;;;;;;4892984;29;20493;-77
2021/11/26 04:20:04;;;;;;;1.70;1.40;;;4.80;98.20;;;;;;4894094;29;20480;-75
2021/11/26 04:22:32;;;;;;;1.60;1.33;;;4.80;98.20;;;;;;4894511;29;20501;-75
2021/11/26 04:24:59;;;;;;;1.67;1.40;;;4.80;98.20;;;;;;4890327;29;20465;-77
2021/11/26 04:27:26;;;;;;;1.60;1.40;;;4.90;98.20;;;;;;4882854;29;20501;-75
2021/11/26 04:29:53;;;;;;;1.70;1.40;;;4.90;98.20;;;;;;4889687;29;20473;-75
2021/11/26 04:32:20;;;;;;;1.67;1.43;;;4.90;98.20;;;;;;4893953;29;20860;-74
2021/11/26 04:34:47;;;;;;;1.70;1.40;;;4.90;98.20;;;;;;4891353;29;20483;-75
2021/11/26 04:37:14;;;;;;;1.63;1.30;;;4.90;98.20;;;;;;4893142;29;20496;-75
2021/11/26 04:39:42;;;;;;;1.60;1.30;;;4.90;98.20;;;;;;4891052;29;20467;-75
2021/11/26 04:42:09;;;;;;;1.60;1.30;;;4.90;98.20;;;;;;4890150;29;20500;-76
2021/11/26 04:44:36;;;;;;;1.60;1.40;;;4.90;98.20;;;;;;4892296;29;20525;-75
2021/11/26 04:47:03;;;;;;;1.70;1.50;;;4.90;98.20;;;;;;4893317;29;20496;-75
2021/11/26 04:49:30;;;;;;;1.63;1.40;;;4.90;98.20;;;;;;4887722;29;20500;-75
2021/11/26 04:51:58;;;;;;;1.70;1.40;;;4.90;98.20;;;;;;4893402;29;20472;-75
2021/11/26 04:54:25;;;;;;;1.70;1.50;;;4.90;98.20;;;;;;4891678;29;20476;-75
2021/11/26 04:56:53;;;;;;;2.27;2.10;;;4.90;98.20;;;;;;4872936;29;20493;-76
2021/11/26 04:59:20;;;;;;;1.60;1.30;;;4.90;98.20;;;;;;4885096;29;20476;-75
2021/11/26 05:01:47;;;;;;;1.70;1.50;;;4.90;98.20;;;;;;4893024;29;20537;-75
2021/11/26 05:04:14;;;;;;;1.60;1.40;;;4.90;98.20;;;;;;4891153;29;20488;-78
2021/11/26 05:06:40;;;;;;;1.63;1.40;;;4.90;98.20;;;;;;4892859;29;20480;-76
2021/11/26 05:09:09;;;;;;;1.60;1.33;;;4.90;98.20;;;;;;4893795;29;20853;-76
2021/11/26 05:11:37;;;;;;;1.63;1.40;;;4.90;98.20;;;;;;4882763;29;20950;-75
2021/11/26 05:14:08;;;;;;;1.63;1.40;;;4.90;98.20;;;;;;4891965;29;20477;-75
2021/11/26 05:16:35;;;;;;;1.63;1.40;;;4.90;98.20;;;;;;4892563;29;20480;-75
2021/11/26 05:19:02;;;;;;;1.63;1.40;;;4.90;98.20;;;;;;4893624;29;20478;-75
2021/11/26 05:21:29;;;;;;;1.60;1.40;;;4.90;98.20;;;;;;4892880;29;20470;-75
2021/11/26 05:23:55;;;;;;;1.70;1.30;;;4.90;98.20;;;;;;4892509;29;20863;-77
2021/11/26 05:26:22;;;;;;;1.60;1.30;;;4.90;98.20;;;;;;4887506;29;20465;-75
2021/11/26 05:28:49;;;;;;;1.60;1.30;;;4.90;98.20;;;;;;4879696;29;20487;-76
2021/11/26 05:31:17;;;;;;;1.70;1.57;;;4.90;98.20;;;;;;4868391;29;20871;-77
2021/11/26 05:33:44;;;;;;;1.60;1.30;;;4.90;98.20;;;;;;4881646;29;20765;-75
2021/11/26 05:36:11;;;;;;;1.70;1.40;;;5.00;98.20;;;;;;4881264;29;20474;-75
2021/11/26 05:38:38;;;;;;;1.60;1.40;;;5.00;98.20;;;;;;4876112;29;20493;-74
2021/11/26 05:41:05;;;;;;;1.63;1.40;;;5.00;98.20;;;;;;4892518;29;20557;-75
2021/11/26 05:43:32;;;;;;;1.60;1.30;;;5.00;98.20;;;;;;4891911;29;20505;-77
2021/11/26 05:45:58;;;;;;;1.60;1.30;;;5.00;98.20;;;;;;4891114;29;20963;-76
2021/11/26 05:48:27;;;;;;;1.70;1.40;;;5.00;98.20;;;;;;4892209;29;20490;-75
2021/11/26 05:50:54;;;;;;;1.60;1.40;;;5.00;98.20;;;;;;4891706;29;20470;-76
2021/11/26 05:53:20;;;;;;;1.70;1.50;;;5.00;98.20;;;;;;4885183;29;20528;-75
2021/11/26 05:55:47;;;;;;;1.70;1.40;;;5.00;98.20;;;;;;4883609;29;20522;-76
2021/11/26 05:58:14;;;;;;;1.67;1.40;;;5.00;98.20;;;;;;4888518;29;20496;-77
2021/11/26 06:00:41;;;;;;;1.60;1.30;;;5.00;98.20;;;;;;4865005;29;20475;-73
2021/11/26 06:03:08;;;;;;;1.63;1.47;;;5.00;98.20;;;;;;4884992;29;20492;-75
2021/11/26 06:05:36;;;;;;;1.60;1.30;;;5.00;98.20;;;;;;4885402;29;20861;-75
2021/11/26 06:08:03;;;;;;;1.70;1.40;;;5.00;98.20;;;;;;4880477;29;20485;-75
2021/11/26 06:10:30;;;;;;;1.60;1.30;;;5.00;98.20;;;;;;4877680;29;20475;-76
2021/11/26 06:12:57;;;;;;;1.60;1.30;;;5.00;98.20;;;;;;4887118;29;20470;-76
2021/11/26 06:15:24;;;;;;;1.60;1.30;;;5.00;98.20;;;;;;4891453;29;20473;-76
2021/11/26 06:17:51;;;;;;;1.60;1.30;;;5.00;98.20;;;;;;4895035;29;20489;-75
2021/11/26 06:20:18;;;;;;;1.60;1.30;;;5.00;98.20;;;;;;4895357;29;20470;-76
2021/11/26 06:22:47;;;;;;;1.60;1.40;;;5.00;98.20;;;;;;4896604;29;20501;-76
2021/11/26 06:25:18;;;;;;;1.60;1.40;;;5.00;98.20;;;;;;4892846;29;20768;-76
2021/11/26 06:27:45;;;;;;;1.60;1.30;;;5.00;98.20;;;;;;4884859;29;20977;-76
2021/11/26 06:30:13;;;;;;;1.70;1.47;;;5.00;98.20;;;;;;4891134;29;20461;-74
2021/11/26 06:32:41;;;;;;;1.60;1.40;;;5.00;98.20;;;;;;4895050;29;20465;-76
2021/11/26 06:35:09;;;;;;;1.60;1.37;;;5.00;98.20;;;;;;4895675;29;20465;-75
2021/11/26 06:37:36;;;;;;;1.60;1.40;;;5.00;98.20;;;;;;4896399;29;20493;-76
2021/11/26 06:40:07;;;;;;;1.67;1.40;;;5.00;98.20;;;;;;4897175;29;20466;-77
2021/11/26 06:42:34;;;;;;;1.70;1.40;;;5.00;98.20;;;;;;4889135;29;20521;-77
2021/11/26 06:45:02;;;;;;;1.70;1.40;;;5.00;98.20;;;;;;4894384;29;20557;-77
2021/11/26 06:47:29;;;;;;;1.70;1.40;;;5.00;98.20;;;;;;4896115;29;21191;-75
2021/11/26 06:49:55;;;;;;;1.60;1.30;;;5.00;98.20;;;;;;4896281;29;20474;-76
2021/11/26 06:52:22;;;;;;;1.60;1.40;;;5.00;98.20;;;;;;4896165;29;20475;-78
2021/11/26 06:54:49;;;;;;;1.60;1.30;;;5.00;98.20;;;;;;4895070;29;20479;-77
2021/11/26 06:57:17;;;;;;;1.60;1.30;;;5.00;98.20;;;;;;4890415;29;20492;-77
2021/11/26 06:59:44;;;;;;;1.60;1.30;;;5.10;98.20;;;;;;4890604;29;20559;-78
2021/11/26 07:02:11;;;;;;;1.63;1.50;;;5.10;98.20;;;;;;4894674;29;20504;-77
2021/11/26 07:04:40;;;;;;;1.60;1.40;;;5.10;98.20;;;;;;4898700;29;20474;-78
2021/11/26 07:07:07;;;;;;;1.60;1.40;;;5.10;98.20;;;;;;4898504;29;20492;-79
2021/11/26 07:09:34;;;;;;;1.60;1.40;;;5.10;98.20;;;;;;4901942;29;21026;-78
2021/11/26 07:12:01;;;;;;;1.63;1.40;;;5.10;98.20;;;;;;4903156;29;20476;-77
2021/11/26 07:14:29;;;;;;;1.60;1.37;;;5.10;98.20;;;;;;4897600;29;20473;-80
2021/11/26 07:16:56;;;;;;;1.60;1.30;;;5.10;98.20;;;;;;4901704;29;20491;-76
2021/11/26 07:19:23;;;;;;;1.60;1.30;;;5.10;98.20;;;;;;4900249;29;20927;-81
2021/11/26 07:21:49;;;;;;;1.60;1.30;;;5.10;98.20;;;;;;4902514;29;20496;-79
2021/11/26 07:24:16;;;;;;;1.63;1.37;;;5.10;98.20;;;;;;4901328;29;20508;-80
2021/11/26 07:26:43;;;;;;;1.70;1.50;;;5.10;98.20;;;;;;4895319;29;20473;-80
2021/11/26 07:29:10;;;;;;;1.60;1.30;;;5.10;98.20;;;;;;4891093;29;20621;-79
2021/11/26 07:31:38;;;;;;;1.60;1.37;;;5.10;98.20;;;;;;4902410;29;20497;-78
2021/11/26 07:34:05;;;;;;;1.60;1.30;;;5.10;98.20;;;;;;4898105;29;20465;-78
2021/11/26 07:36:32;;;;;;;1.60;1.40;;;5.10;98.20;;;;;;4902800;29;20497;-80
2021/11/26 07:38:58;;;;;;;1.60;1.40;;;5.00;98.20;;;;;;4902944;29;20521;-80
2021/11/26 07:41:25;;;;;;;1.60;1.30;;;5.00;98.20;;;;;;4903321;29;20477;-78
2021/11/26 07:43:52;;;;;;;1.70;1.50;;;5.00;98.20;;;;;;4900181;29;21004;-78
2021/11/26 07:46:19;;;;;;;1.60;1.40;;;5.00;98.20;;;;;;4901749;29;21037;-78
2021/11/26 07:48:47;;;;;;;1.70;1.50;;;5.00;98.20;;;;;;4898815;29;20500;-79
2021/11/26 07:51:14;;;;;;;1.60;1.40;;;5.00;98.20;;;;;;4901829;29;20473;-78
2021/11/26 07:53:41;;;;;;;1.60;1.40;;;5.10;98.20;;;;;;4892885;29;20473;-78
2021/11/26 07:56:08;;;;;;;1.67;1.40;;;5.10;98.20;;;;;;4893128;29;20467;-80
2021/11/26 07:58:34;;;;;;;1.60;1.30;;;5.10;98.20;;;;;;4890681;29;20482;-76
2021/11/26 08:01:01;;;;;;;1.60;1.33;;;5.10;98.20;;;;;;4899232;29;20974;-78
2021/11/26 08:03:28;;;;;;;1.60;1.40;;;5.10;98.20;;;;;;4897668;29;20617;-75
2021/11/26 08:05:57;;;;;;;1.60;1.40;;;5.10;98.20;;;;;;4893912;29;20478;-81
2021/11/26 08:08:23;;;;;;;1.60;1.40;;;5.10;98.20;;;;;;4899925;29;20494;-79
2021/11/26 08:10:50;;;;;;;1.60;1.30;;;5.10;98.20;;;;;;4901201;29;20476;-80
2021/11/26 08:13:17;;;;;;;1.63;1.40;;;5.10;98.20;;;;;;4900169;29;20466;-75
2021/11/26 08:15:44;;;;;;;1.60;1.30;;;5.10;98.20;;;;;;4899387;29;20465;-80
2021/11/26 08:18:13;;;;;;;1.60;1.30;;;5.10;98.20;;;;;;4901287;29;21003;-80
2021/11/26 08:20:39;;;;;;;1.60;1.30;;;5.10;98.20;;;;;;4894691;29;20469;-79
2021/11/26 08:23:08;;;;;;;1.60;1.40;;;5.10;98.20;;;;;;4897613;29;20493;-78
2021/11/26 08:25:36;;;;;;;1.60;1.30;;;5.10;98.20;;;;;;4897518;29;20473;-80
2021/11/26 08:28:05;;;;;;;1.60;1.40;;;5.10;98.20;;;;;;4874100;29;21157;-77
2021/11/26 08:30:32;;;;;;;1.60;1.30;;;5.10;98.20;;;;;;4878181;29;20478;-77
2021/11/26 08:33:00;;;;;;;1.60;1.30;;;5.10;98.20;;;;;;4880860;29;20594;-77
2021/11/26 08:35:27;;;;;;;1.60;1.40;;;5.20;98.20;;;;;;4889825;29;20471;-78
2021/11/26 08:37:54;;;;;;;1.60;1.40;;;5.20;98.20;;;;;;4888044;29;20495;-81
2021/11/26 08:40:23;;;;;;;1.63;1.40;;;5.20;98.20;;;;;;4894454;29;20840;-79
2021/11/26 08:42:49;;;;;;;1.60;1.30;;;5.20;98.20;;;;;;4887585;29;20497;-79
2021/11/26 08:45:19;;;;;;;1.60;1.30;;;5.20;98.20;;;;;;4886947;29;20985;-78
2021/11/26 08:47:47;;;;;;;1.60;1.30;;;5.20;98.20;;;;;;4891407;29;20497;-79
2021/11/26 08:50:16;;;;;;;1.63;1.40;;;5.20;98.20;;;;;;4892272;29;20939;-82
2021/11/26 08:52:44;;;;;;;1.67;1.40;;;5.20;98.20;;;;;;4893964;29;20552;-77
2021/11/26 08:55:14;;;;;;;1.60;1.30;;;5.30;98.20;;;;;;4891745;29;20469;-80
2021/11/26 08:57:49;;;;;;;1.63;1.30;;;5.30;98.20;;;;;;4882313;29;20485;-81
2021/11/26 09:00:17;;;;;;;1.63;1.30;;;5.30;98.20;;;;;;4886983;29;20968;-80
2021/11/26 09:02:44;;;;;;;1.60;1.30;;;5.30;98.20;;;;;;4886680;29;20570;-78
2021/11/26 09:05:11;;;;;;;1.60;1.30;;;5.30;98.20;;;;;;4876077;29;20516;-77
2021/11/26 09:07:37;;;;;;;1.63;1.30;;;5.30;98.20;;;;;;4887729;29;20930;-77
2021/11/26 09:10:05;;;;;;;1.60;1.30;;;5.40;98.20;;;;;;4888482;29;20481;-77
2021/11/26 09:12:32;;;;;;;1.60;1.30;;;5.40;98.20;;;;;;4895603;29;20474;-77
2021/11/26 09:15:00;;;;;;;1.67;1.40;;;5.40;98.20;;;;;;4887276;29;20817;-74
2021/11/26 09:17:27;;;;;;;1.70;1.40;;;5.40;98.20;;;;;;4890585;29;20506;-77
2021/11/26 09:19:54;;;;;;;1.70;1.40;;;5.40;98.20;;;;;;4890792;29;20483;-76
2021/11/26 09:22:21;;;;;;;1.60;1.40;;;5.50;98.20;;;;;;4887422;29;20469;-75
2021/11/26 09:24:47;;;;;;;1.70;1.40;;;5.50;98.20;;;;;;4885899;29;20505;-76
2021/11/26 09:27:14;;;;;;;1.60;1.30;;;5.50;98.20;;;;;;4886873;29;20504;-76
2021/11/26 09:29:45;;;;;;;1.60;1.30;;;5.50;98.20;;;;;;4887201;29;20474;-75
2021/11/26 09:32:13;;;;;;;1.60;1.40;;;5.50;98.20;;;;;;4888911;29;20585;-76
2021/11/26 09:34:40;;;;;;;1.60;1.30;;;5.50;98.20;;;;;;4886384;29;20962;-77
2021/11/26 09:37:08;;;;;;;1.67;1.47;;;5.50;98.20;;;;;;4886873;29;20496;-80
2021/11/26 09:39:35;;;;;;;1.60;1.40;;;5.50;98.20;;;;;;4888912;29;20473;-78
2021/11/26 09:42:02;;;;;;;1.60;1.30;;;5.50;98.20;;;;;;4888763;29;20931;-78
2021/11/26 09:44:33;;;;;;;1.63;1.37;;;5.50;98.20;;;;;;4887361;29;20853;-77
2021/11/26 09:47:00;;;;;;;1.60;1.30;;;5.50;98.20;;;;;;4893022;29;20604;-77
2021/11/26 09:49:28;;;;;;;1.60;1.30;;;5.50;98.20;;;;;;4890668;29;20643;-77
2021/11/26 09:51:55;;;;;;;1.60;1.30;;;5.50;98.20;;;;;;4888086;29;20480;-77
2021/11/26 09:54:22;;;;;;;1.70;1.40;;;5.50;98.20;;;;;;4888459;29;20984;-77
2021/11/26 09:56:49;;;;;;;1.60;1.30;;;5.50;98.20;;;;;;4883893;29;20489;-77
2021/11/26 09:59:16;;;;;;;1.70;1.30;;;5.50;98.20;;;;;;4887899;29;20466;-77
2021/11/26 10:01:43;;;;;;;1.60;1.30;;;5.50;98.20;;;;;;4890113;29;20474;-78
2021/11/26 10:04:17;;;;;;;1.60;1.30;;;5.50;98.20;;;;;;4884704;29;20930;-77
2021/11/26 10:06:45;;;;;;;1.67;1.40;;;5.50;98.20;;;;;;4879404;29;20467;-75
2021/11/26 10:09:14;;;;;;;1.60;1.30;;;5.50;98.20;;;;;;4888407;29;20556;-78
2021/11/26 10:11:46;;;;;;;1.60;1.40;;;5.50;98.20;;;;;;4886558;29;20472;-78
2021/11/26 10:14:19;;;;;;;1.63;1.30;;;5.50;98.20;;;;;;4889248;29;20469;-76
2021/11/26 10:16:48;;;;;;;1.60;1.30;;;5.60;98.20;;;;;;4892180;29;20541;-76
2021/11/26 10:19:16;;;;;;;1.60;1.30;;;5.60;98.20;;;;;;4892487;29;21041;-77
2021/11/26 10:21:45;;;;;;;1.60;1.30;;;5.60;98.20;;;;;;4888402;29;20465;-77
2021/11/26 10:24:17;;;;;;;1.60;1.30;;;5.60;98.20;;;;;;4887215;29;20481;-77
2021/11/26 10:26:52;;;;;;;1.60;1.30;;;5.70;98.20;;;;;;4878580;29;20477;-77
2021/11/26 10:29:30;;;;;;;1.60;1.27;;;5.70;98.20;;;;;;4879573;29;20532;-77
2021/11/26 10:32:10;;;;;;;1.60;1.40;;;5.70;98.20;;;;;;4881776;29;20520;-76
2021/11/26 10:34:37;;;;;;;1.60;1.30;;;5.70;98.20;;;;;;4885306;29;20466;-77
2021/11/26 10:37:17;;;;;;;1.60;1.30;;;5.70;98.20;;;;;;4879444;29;20533;-77
2021/11/26 10:39:44;;;;;;;1.60;1.20;;;5.70;98.20;;;;;;4888693;29;20473;-79
2021/11/26 10:42:11;;;;;;;1.60;1.30;;;5.70;98.20;;;;;;4884626;29;20474;-80
2021/11/26 10:44:47;;;;;;;1.60;1.30;;;5.70;98.20;;;;;;4885157;29;20493;-77
2021/11/26 10:47:20;;;;;;;1.63;1.30;;;5.70;98.20;;;;;;4888799;29;20489;-77
2021/11/26 10:58:17;;;;;;;1.70;1.40;;;5.70;98.20;;;;;;4884895;29;20769;-78
2021/11/26 11:00:44;;;;;;;1.60;1.30;;;5.70;98.20;;;;;;4888897;29;20491;-76
2021/11/26 11:03:14;;;;;;;1.60;1.30;;;5.70;98.20;;;;;;4892843;29;20559;-78
2021/11/26 11:05:41;;;;;;;1.60;1.37;;;5.70;98.20;;;;;;4882578;29;20924;-78
2021/11/26 11:08:21;;;;;;;1.60;1.30;;;5.70;98.20;;;;;;4886806;29;20486;-81
2021/11/26 11:10:56;;;;;;;1.60;1.30;;;5.80;98.20;;;;;;4893228;29;20477;-80
2021/11/26 11:13:28;;;;;;;1.60;1.30;;;5.80;98.20;;;;;;4895408;29;20481;-80
2021/11/26 11:16:05;;;;;;;1.60;1.30;;;5.80;98.20;;;;;;4895752;29;20473;-79
2021/11/26 11:18:32;;;;;;;1.60;1.30;;;5.80;98.20;;;;;;4900630;29;20489;-79
2021/11/26 11:20:59;;;;;;;1.60;1.30;;;5.80;98.20;;;;;;4898468;29;20854;-79
2021/11/26 11:23:27;;;;;;;1.60;1.30;;;5.80;98.20;;;;;;4901905;29;20477;-79
2021/11/26 11:26:00;;;;;;;1.60;1.30;;;5.80;98.20;;;;;;4885762;29;20481;-81
2021/11/26 11:28:27;;;;;;;1.67;1.37;;;5.90;98.20;;;;;;4891237;29;20591;-78
2021/11/26 11:30:58;;;;;;;1.60;1.30;;;5.90;98.20;;;;;;4891308;29;20470;-80
2021/11/26 11:33:33;;;;;;;1.63;1.40;;;5.90;98.20;;;;;;4898446;29;20477;-81
2021/11/26 11:36:02;;;;;;;1.63;1.30;;;5.90;98.20;;;;;;4893363;29;20466;-81
2021/11/26 11:38:30;;;;;;;1.60;1.30;;;5.90;98.20;;;;;;4884489;29;20492;-77
2021/11/26 11:41:03;;;;;;;1.67;1.40;;;5.90;98.20;;;;;;4900307;29;20465;-78
2021/11/26 11:43:39;;;;;;;1.60;1.33;;;5.90;98.20;;;;;;4888923;29;20488;-78
2021/11/26 11:46:10;;;;;;;1.60;1.30;;;6.00;98.20;;;;;;4875804;29;20462;-78
2021/11/26 11:48:41;;;;;;;1.60;1.30;;;6.00;98.20;;;;;;4897497;29;21026;-78
2021/11/26 11:51:08;;;;;;;1.60;1.30;;;6.10;98.20;;;;;;4894889;29;20464;-78
2021/11/26 11:53:39;;;;;;;1.60;1.30;;;6.10;98.20;;;;;;4897012;29;20602;-78
2021/11/26 11:56:10;;;;;;;1.60;1.30;;;6.10;98.20;;;;;;4885973;29;20465;-78
2021/11/26 11:58:48;;;;;;;1.63;1.30;;;6.10;98.20;;;;;;4894229;29;20594;-79
2021/11/26 12:01:26;;;;;;;1.60;1.30;;;6.10;98.20;;;;;;4900774;29;21078;-79
2021/11/26 12:03:55;;;;;;;1.60;1.30;;;6.10;98.20;;;;;;4881856;29;20992;-76
2021/11/26 12:06:24;;;;;;;1.63;1.40;;;6.10;98.20;;;;;;4882239;29;20558;-75
2021/11/26 12:08:55;;;;;;;1.60;1.30;;;6.10;98.20;;;;;;4882285;29;21010;-78
2021/11/26 12:11:25;;;;;;;1.60;1.30;;;6.10;98.20;;;;;;4881692;29;20475;-79
2021/11/26 12:14:00;;;;;;;1.60;1.30;;;6.10;98.20;;;;;;4882343;29;20533;-78
2021/11/26 12:16:27;;;;;;;1.60;1.20;;;6.10;98.20;;;;;;4888034;29;20470;-78
2021/11/26 12:18:55;;;;;;;1.60;1.30;;;6.10;98.20;;;;;;4888015;29;20904;-78
2021/11/26 12:21:25;;;;;;;1.60;1.40;;;6.10;98.20;;;;;;4887911;29;20565;-79
2021/11/26 12:24:08;;;;;;;1.60;1.30;;;6.10;98.20;;;;;;4890274;29;20839;-78
2021/11/26 12:26:49;;;;;;;1.60;1.20;;;6.10;98.20;;;;;;4892053;29;20978;-78
2021/11/26 12:29:17;;;;;;;1.97;1.73;;;6.10;98.20;;;;;;4896077;29;20465;-79
2021/11/26 12:31:45;;;;;;;1.60;1.30;;;6.10;98.20;;;;;;4892115;29;20502;-78
2021/11/26 12:34:15;;;;;;;1.60;1.30;;;6.10;98.20;;;;;;4886769;29;20462;-76
2021/11/26 12:36:45;;;;;;;1.60;1.30;;;6.10;98.20;;;;;;4876955;29;20466;-77
2021/11/26 12:39:17;;;;;;;1.60;1.30;;;6.10;98.20;;;;;;4890543;29;20466;-78
2021/11/26 12:41:47;;;;;;;1.60;1.30;;;6.10;98.20;;;;;;4888373;29;20991;-78
2021/11/26 12:44:19;;;;;;;1.67;1.33;;;6.10;98.20;;;;;;4888525;29;20486;-77
2021/11/26 12:46:46;;;;;;;1.60;1.30;;;6.10;98.20;;;;;;4873608;29;20474;-78
2021/11/26 12:49:27;;;;;;;1.60;1.30;;;6.10;98.20;;;;;;4873039;29;20570;-78
2021/11/26 12:51:55;;;;;;;1.60;1.30;;;6.10;98.20;;;;;;4889395;29;20466;-78
2021/11/26 12:54:26;;;;;;;1.60;1.20;;;6.10;98.20;;;;;;4888735;29;20469;-78
2021/11/26 12:56:55;;;;;;;2.07;1.87;;;6.20;98.20;;;;;;4887491;29;20673;-78
2021/11/26 12:59:34;;;;;;;1.63;1.40;;;6.20;98.20;;;;;;4888596;29;20465;-77
2021/11/26 13:02:01;;;;;;;1.70;1.40;;;6.10;98.20;;;;;;4890637;29;20480;-77
2021/11/26 13:04:28;;;;;;;1.60;1.20;;;6.10;98.20;;;;;;4882385;29;20888;-76
2021/11/26 13:07:07;;;;;;;1.60;1.30;;;6.10;98.20;;;;;;4882131;29;20597;-77
2021/11/26 13:09:54;;;;;;;1.70;1.40;;;6.10;98.20;;;;;;4888444;29;20639;-76
2021/11/26 13:12:24;;;;;;;1.60;1.30;;;6.10;98.20;;;;;;4874918;29;21043;-75